sensor_id;sensor_type;location;lat;lon;timestamp;P1;durP1;ratioP1;P2;durP2;ratioP2
703;SDS011;335;48.694;9.120;2023-05-10T00:02:09;0.60;;;0.60;;
703;SDS011;335;48.694;9.120;2023-05-10T00:04:34;0.80;;;0.70;;
703;SDS011;335;48.694;9.120;2023-05-10T00:07:00;0.77;;;0.77;;
703;SDS011;335;48.694;9.120;2023-05-10T00:09:25;0.67;;;0.67;;
703;SDS011;335;48.694;9.120;2023-05-10T00:11:50;0.67;;;0.67;;
703;SDS011;335;48.694;9.120;2023-05-10T00:14:16;0.83;;;0.60;;
703;SDS011;335;48.694;9.120;2023-05-10T00:16:41;2.23;;;0.80;;
703;SDS011;335;48.694;9.120;2023-05-10T00:19:07;0.80;;;0.30;;
703;SDS011;335;48.694;9.120;2023-05-10T00:21:32;0.80;;;0.30;;
703;SDS011;335;48.694;9.120;2023-05-10T00:23:58;1.90;;;0.40;;
703;SDS011;335;48.694;9.120;2023-05-10T00:26:24;0.47;;;0.40;;
703;SDS011;335;48.694;9.120;2023-05-10T00:28:49;0.40;;;0.37;;
703;SDS011;335;48.694;9.120;2023-05-10T00:31:15;0.60;;;0.40;;
703;SDS011;335;48.694;9.120;2023-05-10T00:33:40;0.40;;;0.40;;
703;SDS011;335;48.694;9.120;2023-05-10T00:36:05;1.07;;;0.23;;
703;SDS011;335;48.694;9.120;2023-05-10T00:38:32;1.57;;;0.33;;
703;SDS011;335;48.694;9.120;2023-05-10T00:40:58;0.37;;;0.20;;
703;SDS011;335;48.694;9.120;2023-05-10T00:43:23;0.40;;;0.20;;
703;SDS011;335;48.694;9.120;2023-05-10T00:45:48;1.07;;;0.20;;
703;SDS011;335;48.694;9.120;2023-05-10T00:48:14;0.80;;;0.20;;
703;SDS011;335;48.694;9.120;2023-05-10T00:50:39;2.20;;;0.20;;
703;SDS011;335;48.694;9.120;2023-05-10T00:53:05;0.40;;;0.20;;
703;SDS011;335;48.694;9.120;2023-05-10T00:55:30;0.60;;;0.27;;
703;SDS011;335;48.694;9.120;2023-05-10T00:57:56;2.73;;;0.27;;
703;SDS011;335;48.694;9.120;2023-05-10T01:00:21;2.10;;;0.27;;
703;SDS011;335;48.694;9.120;2023-05-10T01:02:47;0.40;;;0.20;;
703;SDS011;335;48.694;9.120;2023-05-10T01:05:13;0.40;;;0.20;;
703;SDS011;335;48.694;9.120;2023-05-10T01:07:39;0.40;;;0.20;;
703;SDS011;335;48.694;9.120;2023-05-10T01:10:07;0.40;;;0.20;;
703;SDS011;335;48.694;9.120;2023-05-10T01:12:37;0.50;;;0.20;;
703;SDS011;335;48.694;9.120;2023-05-10T01:15:07;0.40;;;0.20;;
703;SDS011;335;48.694;9.120;2023-05-10T01:17:33;0.30;;;0.20;;
703;SDS011;335;48.694;9.120;2023-05-10T01:20:00;0.30;;;0.20;;
703;SDS011;335;48.694;9.120;2023-05-10T01:28:02;0.40;;;0.20;;
703;SDS011;335;48.694;9.120;2023-05-10T01:30:44;0.40;;;0.20;;
703;SDS011;335;48.694;9.120;2023-05-10T01:36:11;1.60;;;0.20;;
703;SDS011;335;48.694;9.120;2023-05-10T01:38:49;0.40;;;0.20;;
703;SDS011;335;48.694;9.120;2023-05-10T01:44:18;0.50;;;0.20;;
703;SDS011;335;48.694;9.120;2023-05-10T01:46:49;0.47;;;0.20;;
703;SDS011;335;48.694;9.120;2023-05-10T01:49:29;1.27;;;0.47;;
703;SDS011;335;48.694;9.120;2023-05-10T01:51:59;0.60;;;0.20;;
703;SDS011;335;48.694;9.120;2023-05-10T01:54:29;0.50;;;0.23;;
703;SDS011;335;48.694;9.120;2023-05-10T01:56:56;0.30;;;0.20;;
703;SDS011;335;48.694;9.120;2023-05-10T01:59:27;0.40;;;0.20;;
703;SDS011;335;48.694;9.120;2023-05-10T02:01:54;1.17;;;0.30;;
703;SDS011;335;48.694;9.120;2023-05-10T02:04:22;0.60;;;0.20;;
703;SDS011;335;48.694;9.120;2023-05-10T02:06:48;2.20;;;0.30;;
703;SDS011;335;48.694;9.120;2023-05-10T02:09:15;0.40;;;0.20;;
703;SDS011;335;48.694;9.120;2023-05-10T02:11:42;0.57;;;0.20;;
703;SDS011;335;48.694;9.120;2023-05-10T02:14:08;0.40;;;0.20;;
703;SDS011;335;48.694;9.120;2023-05-10T02:16:34;0.40;;;0.20;;
703;SDS011;335;48.694;9.120;2023-05-10T02:19:01;0.30;;;0.20;;
703;SDS011;335;48.694;9.120;2023-05-10T02:21:26;1.07;;;0.30;;
703;SDS011;335;48.694;9.120;2023-05-10T02:23:52;1.40;;;0.20;;
703;SDS011;335;48.694;9.120;2023-05-10T02:26:19;4.63;;;0.67;;
703;SDS011;335;48.694;9.120;2023-05-10T02:28:46;1.57;;;0.40;;
703;SDS011;335;48.694;9.120;2023-05-10T02:31:12;0.40;;;0.20;;
703;SDS011;335;48.694;9.120;2023-05-10T02:33:41;0.40;;;0.30;;
703;SDS011;335;48.694;9.120;2023-05-10T02:36:08;0.37;;;0.30;;
703;SDS011;335;48.694;9.120;2023-05-10T02:38:33;0.40;;;0.30;;
703;SDS011;335;48.694;9.120;2023-05-10T02:41:00;0.50;;;0.50;;
703;SDS011;335;48.694;9.120;2023-05-10T02:43:26;0.40;;;0.30;;
703;SDS011;335;48.694;9.120;2023-05-10T02:45:53;1.17;;;0.80;;
703;SDS011;335;48.694;9.120;2023-05-10T02:48:19;0.50;;;0.50;;
703;SDS011;335;48.694;9.120;2023-05-10T02:50:44;1.07;;;0.60;;
703;SDS011;335;48.694;9.120;2023-05-10T02:53:11;2.07;;;0.60;;
703;SDS011;335;48.694;9.120;2023-05-10T02:55:41;2.53;;;0.67;;
703;SDS011;335;48.694;9.120;2023-05-10T02:58:10;1.47;;;0.80;;
703;SDS011;335;48.694;9.120;2023-05-10T03:00:35;0.50;;;0.50;;
703;SDS011;335;48.694;9.120;2023-05-10T03:03:01;2.60;;;0.70;;
703;SDS011;335;48.694;9.120;2023-05-10T03:05:26;1.03;;;0.60;;
703;SDS011;335;48.694;9.120;2023-05-10T03:07:51;0.53;;;0.53;;
703;SDS011;335;48.694;9.120;2023-05-10T03:10:17;0.57;;;0.57;;
703;SDS011;335;48.694;9.120;2023-05-10T03:15:24;1.23;;;0.80;;
703;SDS011;335;48.694;9.120;2023-05-10T03:18:28;0.70;;;0.70;;
703;SDS011;335;48.694;9.120;2023-05-10T03:20:58;0.67;;;0.67;;
703;SDS011;335;48.694;9.120;2023-05-10T03:23:30;0.90;;;0.90;;
703;SDS011;335;48.694;9.120;2023-05-10T03:26:00;0.97;;;0.70;;
703;SDS011;335;48.694;9.120;2023-05-10T03:28:26;0.93;;;0.90;;
703;SDS011;335;48.694;9.120;2023-05-10T03:30:52;0.73;;;0.73;;
703;SDS011;335;48.694;9.120;2023-05-10T03:33:18;1.30;;;0.97;;
703;SDS011;335;48.694;9.120;2023-05-10T03:35:44;0.60;;;0.60;;
703;SDS011;335;48.694;9.120;2023-05-10T03:38:10;1.47;;;0.60;;
703;SDS011;335;48.694;9.120;2023-05-10T03:40:36;1.57;;;0.73;;
703;SDS011;335;48.694;9.120;2023-05-10T03:43:02;0.80;;;0.80;;
703;SDS011;335;48.694;9.120;2023-05-10T03:45:27;1.20;;;1.10;;
703;SDS011;335;48.694;9.120;2023-05-10T03:47:53;1.30;;;1.00;;
703;SDS011;335;48.694;9.120;2023-05-10T03:50:18;0.70;;;0.70;;
703;SDS011;335;48.694;9.120;2023-05-10T03:52:44;0.60;;;0.60;;
703;SDS011;335;48.694;9.120;2023-05-10T03:55:10;0.70;;;0.70;;
703;SDS011;335;48.694;9.120;2023-05-10T03:57:35;0.80;;;0.80;;
703;SDS011;335;48.694;9.120;2023-05-10T04:00:01;1.53;;;0.97;;
703;SDS011;335;48.694;9.120;2023-05-10T04:02:26;0.93;;;0.80;;
703;SDS011;335;48.694;9.120;2023-05-10T04:04:51;1.07;;;0.60;;
703;SDS011;335;48.694;9.120;2023-05-10T04:07:17;1.80;;;0.80;;
703;SDS011;335;48.694;9.120;2023-05-10T04:09:43;0.60;;;0.60;;
703;SDS011;335;48.694;9.120;2023-05-10T04:12:08;0.70;;;0.70;;
703;SDS011;335;48.694;9.120;2023-05-10T04:14:33;0.63;;;0.63;;
703;SDS011;335;48.694;9.120;2023-05-10T04:16:59;1.17;;;1.00;;
703;SDS011;335;48.694;9.120;2023-05-10T04:19:28;0.63;;;0.63;;
703;SDS011;335;48.694;9.120;2023-05-10T04:21:54;1.67;;;0.80;;
703;SDS011;335;48.694;9.120;2023-05-10T04:24:19;1.60;;;0.90;;
703;SDS011;335;48.694;9.120;2023-05-10T04:26:44;0.60;;;0.60;;
703;SDS011;335;48.694;9.120;2023-05-10T04:29:10;0.70;;;0.70;;
703;SDS011;335;48.694;9.120;2023-05-10T04:31:36;0.80;;;0.80;;
703;SDS011;335;48.694;9.120;2023-05-10T04:34:01;0.63;;;0.63;;
703;SDS011;335;48.694;9.120;2023-05-10T04:36:26;0.90;;;0.90;;
703;SDS011;335;48.694;9.120;2023-05-10T04:38:52;0.80;;;0.80;;
703;SDS011;335;48.694;9.120;2023-05-10T04:41:18;1.30;;;0.80;;
703;SDS011;335;48.694;9.120;2023-05-10T04:43:43;1.97;;;0.77;;
703;SDS011;335;48.694;9.120;2023-05-10T04:46:08;1.17;;;1.07;;
703;SDS011;335;48.694;9.120;2023-05-10T04:48:34;3.23;;;1.10;;
703;SDS011;335;48.694;9.120;2023-05-10T04:50:59;2.00;;;0.90;;
703;SDS011;335;48.694;9.120;2023-05-10T04:53:24;0.87;;;0.87;;
703;SDS011;335;48.694;9.120;2023-05-10T04:55:50;1.10;;;0.90;;
703;SDS011;335;48.694;9.120;2023-05-10T04:58:15;0.90;;;0.90;;
703;SDS011;335;48.694;9.120;2023-05-10T05:00:41;0.97;;;0.97;;
703;SDS011;335;48.694;9.120;2023-05-10T05:03:06;2.10;;;1.13;;
703;SDS011;335;48.694;9.120;2023-05-10T05:05:32;1.80;;;1.00;;
703;SDS011;335;48.694;9.120;2023-05-10T05:07:57;1.17;;;1.00;;
703;SDS011;335;48.694;9.120;2023-05-10T05:10:22;0.70;;;0.70;;
703;SDS011;335;48.694;9.120;2023-05-10T05:12:48;1.00;;;1.00;;
703;SDS011;335;48.694;9.120;2023-05-10T05:15:13;1.10;;;1.10;;
703;SDS011;335;48.694;9.120;2023-05-10T05:17:40;2.53;;;1.00;;
703;SDS011;335;48.694;9.120;2023-05-10T05:20:05;2.00;;;1.10;;
703;SDS011;335;48.694;9.120;2023-05-10T05:22:31;2.03;;;1.17;;
703;SDS011;335;48.694;9.120;2023-05-10T05:24:57;1.20;;;1.20;;
703;SDS011;335;48.694;9.120;2023-05-10T05:27:23;3.00;;;1.33;;
703;SDS011;335;48.694;9.120;2023-05-10T05:29:52;0.83;;;0.83;;
703;SDS011;335;48.694;9.120;2023-05-10T05:32:18;1.53;;;1.10;;
703;SDS011;335;48.694;9.120;2023-05-10T05:34:46;1.83;;;0.93;;
703;SDS011;335;48.694;9.120;2023-05-10T05:37:15;1.00;;;0.97;;
703;SDS011;335;48.694;9.120;2023-05-10T05:39:41;0.97;;;0.97;;
703;SDS011;335;48.694;9.120;2023-05-10T05:42:07;1.50;;;1.40;;
703;SDS011;335;48.694;9.120;2023-05-10T05:44:33;2.50;;;1.30;;
703;SDS011;335;48.694;9.120;2023-05-10T05:46:58;0.90;;;0.90;;
703;SDS011;335;48.694;9.120;2023-05-10T05:49:23;1.00;;;1.00;;
703;SDS011;335;48.694;9.120;2023-05-10T05:51:48;1.83;;;1.03;;
703;SDS011;335;48.694;9.120;2023-05-10T05:54:15;1.30;;;1.23;;
703;SDS011;335;48.694;9.120;2023-05-10T05:56:40;1.27;;;1.13;;
703;SDS011;335;48.694;9.120;2023-05-10T05:59:05;2.60;;;1.07;;
703;SDS011;335;48.694;9.120;2023-05-10T06:01:31;1.20;;;1.17;;
703;SDS011;335;48.694;9.120;2023-05-10T06:03:56;1.70;;;1.20;;
703;SDS011;335;48.694;9.120;2023-05-10T06:06:21;0.80;;;0.80;;
703;SDS011;335;48.694;9.120;2023-05-10T06:08:47;1.53;;;1.10;;
703;SDS011;335;48.694;9.120;2023-05-10T06:11:12;1.23;;;1.10;;
703;SDS011;335;48.694;9.120;2023-05-10T06:13:37;1.93;;;1.00;;
703;SDS011;335;48.694;9.120;2023-05-10T06:16:03;1.30;;;1.20;;
703;SDS011;335;48.694;9.120;2023-05-10T06:18:28;1.17;;;0.90;;
703;SDS011;335;48.694;9.120;2023-05-10T06:20:53;1.07;;;1.00;;
703;SDS011;335;48.694;9.120;2023-05-10T06:23:19;1.47;;;1.33;;
703;SDS011;335;48.694;9.120;2023-05-10T06:25:44;1.30;;;1.20;;
703;SDS011;335;48.694;9.120;2023-05-10T06:28:09;1.27;;;1.00;;
703;SDS011;335;48.694;9.120;2023-05-10T06:30:35;1.50;;;1.33;;
703;SDS011;335;48.694;9.120;2023-05-10T06:33:01;1.60;;;1.20;;
703;SDS011;335;48.694;9.120;2023-05-10T06:35:26;1.57;;;1.10;;
703;SDS011;335;48.694;9.120;2023-05-10T06:37:52;1.40;;;1.30;;
703;SDS011;335;48.694;9.120;2023-05-10T06:40:17;1.10;;;1.10;;
703;SDS011;335;48.694;9.120;2023-05-10T06:42:43;1.80;;;1.00;;
703;SDS011;335;48.694;9.120;2023-05-10T06:45:09;1.90;;;1.07;;
703;SDS011;335;48.694;9.120;2023-05-10T06:47:35;1.80;;;1.20;;
703;SDS011;335;48.694;9.120;2023-05-10T06:50:00;1.57;;;0.70;;
703;SDS011;335;48.694;9.120;2023-05-10T06:52:26;1.03;;;1.03;;
703;SDS011;335;48.694;9.120;2023-05-10T06:54:51;1.00;;;0.97;;
703;SDS011;335;48.694;9.120;2023-05-10T06:57:17;1.43;;;1.00;;
703;SDS011;335;48.694;9.120;2023-05-10T06:59:43;1.40;;;1.23;;
703;SDS011;335;48.694;9.120;2023-05-10T07:02:08;2.30;;;0.90;;
703;SDS011;335;48.694;9.120;2023-05-10T07:04:33;2.07;;;1.17;;
703;SDS011;335;48.694;9.120;2023-05-10T07:06:59;1.30;;;1.20;;
703;SDS011;335;48.694;9.120;2023-05-10T07:09:24;1.10;;;1.10;;
703;SDS011;335;48.694;9.120;2023-05-10T07:11:49;1.63;;;1.07;;
703;SDS011;335;48.694;9.120;2023-05-10T07:14:15;1.20;;;1.20;;
703;SDS011;335;48.694;9.120;2023-05-10T07:16:40;1.67;;;1.60;;
703;SDS011;335;48.694;9.120;2023-05-10T07:19:06;1.17;;;1.17;;
703;SDS011;335;48.694;9.120;2023-05-10T07:21:31;1.00;;;1.00;;
703;SDS011;335;48.694;9.120;2023-05-10T07:23:57;1.20;;;0.93;;
703;SDS011;335;48.694;9.120;2023-05-10T07:26:22;1.07;;;1.03;;
703;SDS011;335;48.694;9.120;2023-05-10T07:28:47;1.10;;;1.10;;
703;SDS011;335;48.694;9.120;2023-05-10T07:31:13;1.03;;;1.03;;
703;SDS011;335;48.694;9.120;2023-05-10T07:33:38;2.00;;;1.27;;
703;SDS011;335;48.694;9.120;2023-05-10T07:36:03;0.73;;;0.73;;
703;SDS011;335;48.694;9.120;2023-05-10T07:38:29;1.10;;;1.00;;
703;SDS011;335;48.694;9.120;2023-05-10T07:40:54;1.23;;;1.23;;
703;SDS011;335;48.694;9.120;2023-05-10T07:43:20;1.03;;;0.80;;
703;SDS011;335;48.694;9.120;2023-05-10T07:45:45;1.80;;;0.90;;
703;SDS011;335;48.694;9.120;2023-05-10T07:48:10;1.47;;;1.20;;
703;SDS011;335;48.694;9.120;2023-05-10T07:50:36;0.87;;;0.83;;
703;SDS011;335;48.694;9.120;2023-05-10T07:53:01;2.30;;;1.10;;
703;SDS011;335;48.694;9.120;2023-05-10T07:55:26;1.73;;;1.10;;
703;SDS011;335;48.694;9.120;2023-05-10T07:57:51;2.30;;;1.20;;
703;SDS011;335;48.694;9.120;2023-05-10T08:00:17;0.63;;;0.63;;
703;SDS011;335;48.694;9.120;2023-05-10T08:02:43;1.23;;;0.90;;
703;SDS011;335;48.694;9.120;2023-05-10T08:05:09;1.20;;;0.70;;
703;SDS011;335;48.694;9.120;2023-05-10T08:07:35;0.80;;;0.60;;
703;SDS011;335;48.694;9.120;2023-05-10T08:10:01;2.20;;;0.70;;
703;SDS011;335;48.694;9.120;2023-05-10T08:12:26;0.73;;;0.73;;
703;SDS011;335;48.694;9.120;2023-05-10T08:14:52;2.83;;;0.70;;
703;SDS011;335;48.694;9.120;2023-05-10T08:17:17;1.70;;;0.67;;
703;SDS011;335;48.694;9.120;2023-05-10T08:19:42;0.50;;;0.50;;
703;SDS011;335;48.694;9.120;2023-05-10T08:22:08;1.53;;;0.60;;
703;SDS011;335;48.694;9.120;2023-05-10T08:24:33;0.90;;;0.50;;
703;SDS011;335;48.694;9.120;2023-05-10T08:27:03;0.70;;;0.40;;
703;SDS011;335;48.694;9.120;2023-05-10T08:29:30;0.60;;;0.60;;
703;SDS011;335;48.694;9.120;2023-05-10T08:31:55;0.73;;;0.50;;
703;SDS011;335;48.694;9.120;2023-05-10T08:34:20;0.60;;;0.43;;
703;SDS011;335;48.694;9.120;2023-05-10T08:36:45;0.50;;;0.50;;
703;SDS011;335;48.694;9.120;2023-05-10T08:39:11;0.93;;;0.87;;
703;SDS011;335;48.694;9.120;2023-05-10T08:41:36;1.37;;;0.70;;
703;SDS011;335;48.694;9.120;2023-05-10T08:44:04;0.90;;;0.70;;
703;SDS011;335;48.694;9.120;2023-05-10T08:46:30;1.13;;;0.47;;
703;SDS011;335;48.694;9.120;2023-05-10T08:48:56;0.60;;;0.57;;
703;SDS011;335;48.694;9.120;2023-05-10T08:51:23;1.07;;;0.60;;
703;SDS011;335;48.694;9.120;2023-05-10T08:53:51;1.53;;;0.30;;
703;SDS011;335;48.694;9.120;2023-05-10T08:56:17;0.40;;;0.33;;
703;SDS011;335;48.694;9.120;2023-05-10T08:58:43;0.97;;;0.67;;
703;SDS011;335;48.694;9.120;2023-05-10T09:01:08;0.40;;;0.30;;
703;SDS011;335;48.694;9.120;2023-05-10T09:03:34;0.83;;;0.40;;
703;SDS011;335;48.694;9.120;2023-05-10T09:06:00;0.43;;;0.30;;
703;SDS011;335;48.694;9.120;2023-05-10T09:08:26;0.47;;;0.40;;
703;SDS011;335;48.694;9.120;2023-05-10T09:10:51;0.80;;;0.50;;
703;SDS011;335;48.694;9.120;2023-05-10T09:13:17;1.37;;;0.40;;
703;SDS011;335;48.694;9.120;2023-05-10T09:15:43;1.40;;;0.40;;
703;SDS011;335;48.694;9.120;2023-05-10T09:18:09;2.97;;;0.47;;
703;SDS011;335;48.694;9.120;2023-05-10T09:20:35;0.60;;;0.43;;
703;SDS011;335;48.694;9.120;2023-05-10T09:23:00;0.40;;;0.30;;
703;SDS011;335;48.694;9.120;2023-05-10T09:25:26;0.67;;;0.47;;
703;SDS011;335;48.694;9.120;2023-05-10T09:27:51;1.10;;;0.40;;
703;SDS011;335;48.694;9.120;2023-05-10T09:30:17;2.27;;;0.50;;
703;SDS011;335;48.694;9.120;2023-05-10T09:32:49;0.40;;;0.40;;
703;SDS011;335;48.694;9.120;2023-05-10T09:35:18;1.47;;;0.30;;
703;SDS011;335;48.694;9.120;2023-05-10T09:37:46;0.40;;;0.37;;
703;SDS011;335;48.694;9.120;2023-05-10T09:40:19;0.40;;;0.40;;
703;SDS011;335;48.694;9.120;2023-05-10T09:42:53;2.10;;;0.33;;
703;SDS011;335;48.694;9.120;2023-05-10T09:45:34;0.60;;;0.60;;
703;SDS011;335;48.694;9.120;2023-05-10T09:48:00;0.60;;;0.50;;
703;SDS011;335;48.694;9.120;2023-05-10T09:50:27;0.83;;;0.47;;
703;SDS011;335;48.694;9.120;2023-05-10T09:53:02;1.20;;;0.30;;
703;SDS011;335;48.694;9.120;2023-05-10T09:55:38;1.23;;;0.33;;
703;SDS011;335;48.694;9.120;2023-05-10T09:58:05;1.87;;;0.37;;
703;SDS011;335;48.694;9.120;2023-05-10T10:00:35;0.60;;;0.60;;
703;SDS011;335;48.694;9.120;2023-05-10T10:03:04;0.50;;;0.50;;
703;SDS011;335;48.694;9.120;2023-05-10T10:05:31;1.27;;;0.60;;
703;SDS011;335;48.694;9.120;2023-05-10T10:07:57;0.40;;;0.40;;
703;SDS011;335;48.694;9.120;2023-05-10T10:10:26;0.63;;;0.63;;
703;SDS011;335;48.694;9.120;2023-05-10T10:12:52;0.53;;;0.40;;
703;SDS011;335;48.694;9.120;2023-05-10T10:15:18;0.60;;;0.50;;
703;SDS011;335;48.694;9.120;2023-05-10T10:17:43;1.43;;;0.60;;
703;SDS011;335;48.694;9.120;2023-05-10T10:20:09;0.60;;;0.60;;
703;SDS011;335;48.694;9.120;2023-05-10T10:22:34;0.63;;;0.63;;
703;SDS011;335;48.694;9.120;2023-05-10T10:25:01;1.07;;;0.93;;
703;SDS011;335;48.694;9.120;2023-05-10T10:27:43;0.60;;;0.50;;
703;SDS011;335;48.694;9.120;2023-05-10T10:35:35;1.17;;;0.77;;
703;SDS011;335;48.694;9.120;2023-05-10T10:38:01;0.50;;;0.50;;
703;SDS011;335;48.694;9.120;2023-05-10T10:40:27;0.70;;;0.70;;
703;SDS011;335;48.694;9.120;2023-05-10T10:42:54;0.90;;;0.90;;
703;SDS011;335;48.694;9.120;2023-05-10T10:45:20;0.50;;;0.50;;
703;SDS011;335;48.694;9.120;2023-05-10T10:47:46;0.93;;;0.60;;
703;SDS011;335;48.694;9.120;2023-05-10T10:50:11;0.70;;;0.70;;
703;SDS011;335;48.694;9.120;2023-05-10T10:52:41;0.80;;;0.80;;
703;SDS011;335;48.694;9.120;2023-05-10T10:55:11;2.30;;;0.90;;
703;SDS011;335;48.694;9.120;2023-05-10T11:00:17;0.60;;;0.60;;
703;SDS011;335;48.694;9.120;2023-05-10T11:02:44;1.43;;;0.80;;
703;SDS011;335;48.694;9.120;2023-05-10T11:07:55;0.93;;;0.63;;
703;SDS011;335;48.694;9.120;2023-05-10T11:10:21;0.87;;;0.67;;
703;SDS011;335;48.694;9.120;2023-05-10T11:12:51;2.43;;;0.60;;
703;SDS011;335;48.694;9.120;2023-05-10T11:15:38;0.83;;;0.53;;
703;SDS011;335;48.694;9.120;2023-05-10T11:18:20;3.30;;;0.70;;
703;SDS011;335;48.694;9.120;2023-05-10T11:23:20;1.00;;;0.60;;
703;SDS011;335;48.694;9.120;2023-05-10T11:25:47;0.50;;;0.50;;
703;SDS011;335;48.694;9.120;2023-05-10T11:28:13;0.47;;;0.40;;
703;SDS011;335;48.694;9.120;2023-05-10T11:30:38;1.43;;;0.60;;
703;SDS011;335;48.694;9.120;2023-05-10T11:33:04;0.40;;;0.30;;
703;SDS011;335;48.694;9.120;2023-05-10T11:35:30;1.27;;;0.60;;
703;SDS011;335;48.694;9.120;2023-05-10T11:37:55;1.43;;;0.60;;
703;SDS011;335;48.694;9.120;2023-05-10T11:40:21;1.87;;;0.63;;
703;SDS011;335;48.694;9.120;2023-05-10T11:42:49;0.80;;;0.43;;
703;SDS011;335;48.694;9.120;2023-05-10T11:45:15;0.60;;;0.50;;
703;SDS011;335;48.694;9.120;2023-05-10T11:47:40;1.00;;;0.90;;
703;SDS011;335;48.694;9.120;2023-05-10T11:50:08;1.50;;;0.40;;
703;SDS011;335;48.694;9.120;2023-05-10T11:52:37;0.90;;;0.60;;
703;SDS011;335;48.694;9.120;2023-05-10T11:55:02;1.57;;;0.90;;
703;SDS011;335;48.694;9.120;2023-05-10T11:57:28;0.73;;;0.50;;
703;SDS011;335;48.694;9.120;2023-05-10T11:59:54;1.50;;;0.47;;
703;SDS011;335;48.694;9.120;2023-05-10T12:02:20;0.60;;;0.60;;
703;SDS011;335;48.694;9.120;2023-05-10T12:04:45;0.60;;;0.50;;
703;SDS011;335;48.694;9.120;2023-05-10T12:07:11;0.60;;;0.60;;
703;SDS011;335;48.694;9.120;2023-05-10T12:09:36;0.80;;;0.50;;
703;SDS011;335;48.694;9.120;2023-05-10T12:12:01;0.63;;;0.63;;
703;SDS011;335;48.694;9.120;2023-05-10T12:14:27;0.83;;;0.83;;
703;SDS011;335;48.694;9.120;2023-05-10T12:16:53;1.53;;;0.90;;
703;SDS011;335;48.694;9.120;2023-05-10T12:19:19;1.13;;;0.70;;
703;SDS011;335;48.694;9.120;2023-05-10T12:21:46;1.33;;;0.83;;
703;SDS011;335;48.694;9.120;2023-05-10T12:24:12;2.73;;;1.00;;
703;SDS011;335;48.694;9.120;2023-05-10T12:26:37;1.67;;;1.00;;
703;SDS011;335;48.694;9.120;2023-05-10T12:29:12;1.00;;;0.70;;
703;SDS011;335;48.694;9.120;2023-05-10T12:31:55;0.83;;;0.83;;
703;SDS011;335;48.694;9.120;2023-05-10T12:34:31;1.00;;;0.97;;
703;SDS011;335;48.694;9.120;2023-05-10T12:36:57;1.73;;;0.83;;
703;SDS011;335;48.694;9.120;2023-05-10T12:39:23;1.07;;;0.70;;
703;SDS011;335;48.694;9.120;2023-05-10T12:41:49;1.67;;;1.20;;
703;SDS011;335;48.694;9.120;2023-05-10T12:44:15;1.37;;;0.77;;
703;SDS011;335;48.694;9.120;2023-05-10T12:46:41;2.13;;;1.10;;
703;SDS011;335;48.694;9.120;2023-05-10T12:49:06;2.10;;;0.80;;
703;SDS011;335;48.694;9.120;2023-05-10T12:51:31;0.90;;;0.90;;
703;SDS011;335;48.694;9.120;2023-05-10T12:53:56;0.90;;;0.90;;
703;SDS011;335;48.694;9.120;2023-05-10T12:56:22;1.00;;;1.00;;
703;SDS011;335;48.694;9.120;2023-05-10T12:58:47;1.10;;;1.10;;
703;SDS011;335;48.694;9.120;2023-05-10T13:01:13;1.10;;;1.00;;
703;SDS011;335;48.694;9.120;2023-05-10T13:03:39;2.20;;;1.10;;
703;SDS011;335;48.694;9.120;2023-05-10T13:06:04;2.23;;;1.43;;
703;SDS011;335;48.694;9.120;2023-05-10T13:08:30;0.90;;;0.90;;
703;SDS011;335;48.694;9.120;2023-05-10T13:10:58;0.73;;;0.70;;
703;SDS011;335;48.694;9.120;2023-05-10T13:13:24;1.07;;;0.97;;
703;SDS011;335;48.694;9.120;2023-05-10T13:15:49;0.80;;;0.80;;
703;SDS011;335;48.694;9.120;2023-05-10T13:18:15;1.10;;;0.87;;
703;SDS011;335;48.694;9.120;2023-05-10T13:20:40;1.20;;;1.20;;
703;SDS011;335;48.694;9.120;2023-05-10T13:23:05;1.87;;;1.37;;
703;SDS011;335;48.694;9.120;2023-05-10T13:25:31;1.40;;;1.30;;
703;SDS011;335;48.694;9.120;2023-05-10T13:27:56;1.00;;;0.90;;
703;SDS011;335;48.694;9.120;2023-05-10T13:30:22;3.43;;;1.10;;
703;SDS011;335;48.694;9.120;2023-05-10T13:32:48;1.47;;;1.00;;
703;SDS011;335;48.694;9.120;2023-05-10T13:35:14;0.90;;;0.90;;
703;SDS011;335;48.694;9.120;2023-05-10T13:37:39;1.77;;;1.23;;
703;SDS011;335;48.694;9.120;2023-05-10T13:40:05;4.53;;;1.20;;
703;SDS011;335;48.694;9.120;2023-05-10T13:42:31;1.00;;;1.00;;
703;SDS011;335;48.694;9.120;2023-05-10T13:44:58;1.20;;;1.03;;
703;SDS011;335;48.694;9.120;2023-05-10T13:47:23;1.27;;;1.10;;
703;SDS011;335;48.694;9.120;2023-05-10T13:49:49;1.00;;;0.80;;
703;SDS011;335;48.694;9.120;2023-05-10T13:52:14;1.27;;;1.10;;
703;SDS011;335;48.694;9.120;2023-05-10T13:54:39;2.70;;;0.90;;
703;SDS011;335;48.694;9.120;2023-05-10T13:57:05;2.33;;;0.93;;
703;SDS011;335;48.694;9.120;2023-05-10T13:59:31;1.43;;;0.77;;
703;SDS011;335;48.694;9.120;2023-05-10T14:01:57;0.93;;;0.93;;
703;SDS011;335;48.694;9.120;2023-05-10T14:04:23;1.83;;;1.00;;
703;SDS011;335;48.694;9.120;2023-05-10T14:06:48;0.90;;;0.90;;
703;SDS011;335;48.694;9.120;2023-05-10T14:09:14;1.10;;;0.90;;
703;SDS011;335;48.694;9.120;2023-05-10T14:11:39;1.27;;;1.17;;
703;SDS011;335;48.694;9.120;2023-05-10T14:14:08;3.07;;;1.23;;
703;SDS011;335;48.694;9.120;2023-05-10T14:16:33;1.30;;;1.20;;
703;SDS011;335;48.694;9.120;2023-05-10T14:18:59;0.90;;;0.90;;
703;SDS011;335;48.694;9.120;2023-05-10T14:21:24;1.33;;;1.13;;
703;SDS011;335;48.694;9.120;2023-05-10T14:23:50;2.10;;;1.17;;
703;SDS011;335;48.694;9.120;2023-05-10T14:26:15;1.27;;;0.97;;
703;SDS011;335;48.694;9.120;2023-05-10T14:28:41;1.77;;;1.00;;
703;SDS011;335;48.694;9.120;2023-05-10T14:31:06;2.30;;;1.00;;
703;SDS011;335;48.694;9.120;2023-05-10T14:33:31;1.30;;;1.03;;
703;SDS011;335;48.694;9.120;2023-05-10T14:35:57;2.67;;;0.97;;
703;SDS011;335;48.694;9.120;2023-05-10T14:38:22;0.90;;;0.90;;
703;SDS011;335;48.694;9.120;2023-05-10T14:40:48;1.70;;;1.10;;
703;SDS011;335;48.694;9.120;2023-05-10T14:43:13;1.13;;;0.90;;
703;SDS011;335;48.694;9.120;2023-05-10T14:45:39;1.03;;;0.93;;
703;SDS011;335;48.694;9.120;2023-05-10T14:48:04;0.97;;;0.97;;
703;SDS011;335;48.694;9.120;2023-05-10T14:50:30;2.00;;;1.13;;
703;SDS011;335;48.694;9.120;2023-05-10T14:52:56;0.97;;;0.97;;
703;SDS011;335;48.694;9.120;2023-05-10T14:55:21;1.13;;;1.07;;
703;SDS011;335;48.694;9.120;2023-05-10T14:57:47;1.23;;;1.13;;
703;SDS011;335;48.694;9.120;2023-05-10T15:00:14;0.93;;;0.93;;
703;SDS011;335;48.694;9.120;2023-05-10T15:02:40;1.10;;;1.10;;
703;SDS011;335;48.694;9.120;2023-05-10T15:05:06;3.37;;;1.10;;
703;SDS011;335;48.694;9.120;2023-05-10T15:07:32;0.97;;;0.87;;
703;SDS011;335;48.694;9.120;2023-05-10T15:09:57;1.10;;;1.10;;
703;SDS011;335;48.694;9.120;2023-05-10T15:12:22;1.50;;;0.70;;
703;SDS011;335;48.694;9.120;2023-05-10T15:14:48;1.67;;;1.30;;
703;SDS011;335;48.694;9.120;2023-05-10T15:17:13;1.00;;;1.00;;
703;SDS011;335;48.694;9.120;2023-05-10T15:19:38;2.23;;;1.10;;
703;SDS011;335;48.694;9.120;2023-05-10T15:22:04;0.90;;;0.90;;
703;SDS011;335;48.694;9.120;2023-05-10T15:24:30;0.90;;;0.90;;
703;SDS011;335;48.694;9.120;2023-05-10T15:26:55;1.37;;;0.70;;
703;SDS011;335;48.694;9.120;2023-05-10T15:29:20;0.93;;;0.80;;
703;SDS011;335;48.694;9.120;2023-05-10T15:31:49;1.20;;;0.90;;
703;SDS011;335;48.694;9.120;2023-05-10T15:34:15;1.20;;;1.10;;
703;SDS011;335;48.694;9.120;2023-05-10T15:36:41;0.73;;;0.73;;
703;SDS011;335;48.694;9.120;2023-05-10T15:39:06;1.53;;;0.90;;
703;SDS011;335;48.694;9.120;2023-05-10T15:41:32;1.23;;;0.90;;
703;SDS011;335;48.694;9.120;2023-05-10T15:43:57;1.17;;;1.00;;
703;SDS011;335;48.694;9.120;2023-05-10T15:46:24;2.40;;;0.90;;
703;SDS011;335;48.694;9.120;2023-05-10T15:48:50;0.90;;;0.90;;
703;SDS011;335;48.694;9.120;2023-05-10T15:51:15;1.27;;;1.20;;
703;SDS011;335;48.694;9.120;2023-05-10T15:53:41;0.80;;;0.80;;
703;SDS011;335;48.694;9.120;2023-05-10T15:56:06;1.10;;;1.07;;
703;SDS011;335;48.694;9.120;2023-05-10T15:58:32;0.90;;;0.90;;
703;SDS011;335;48.694;9.120;2023-05-10T16:00:57;1.33;;;0.97;;
703;SDS011;335;48.694;9.120;2023-05-10T16:03:22;1.00;;;1.00;;
703;SDS011;335;48.694;9.120;2023-05-10T16:05:48;1.20;;;1.20;;
703;SDS011;335;48.694;9.120;2023-05-10T16:08:13;0.90;;;0.90;;